Nesbit, Mississippi
Current Conditions -  °F | °C
As of 12:54 PM on Friday 28 Nov 2014 (Local Time) from KMEM Reporting Station
Clear Clear  
Wind Chill: 53°   Ceiling: Unl
Heat Index: 53°   Visibility: 10mi
Dew Point: 25°   Wind: 12mph
Humidity: 34%   Direction: 190°S
Pressure: 30.26"   Gusts: 22mph
Location:  34.88°N, 90.01°W
Report Text: KMEM 281854Z 19010G19KT 10SM CLR 12/M04 A3026 RMK AO2 SLP247 T01171039 $
Loading
Personal Weather Stations






























Interactive Weather Map New forecast layout! Learn more

10-Day Weather Forecast

Advertisements
Track Severe Weather on mobile